Weather at Berlevåg Airport

Public forecast

Using degrees Celsius for public forecast. Weather courtesy of forecast.io.

Current aviation weather report (METAR) for Berlevåg Airport

Report is more than 6 hours old.

2022/11/14 15:20 (retrieved 2 years ago)

ENBV 141520Z VRB02KT CAVOK M01/M04 Q1018

Closest aviation forecast (TAF) to Berlevåg Airport

Forecast is more than 12 hours old.

Closest forecast is Lakselv Airport, Banak, 94.7 nm (175.3 km) WSW.

2023/02/22 18:36 (retrieved 1 year ago)

TAF ENNA 221700Z 2218/2318 18020KT CAVOK TEMPO 2218/2306 18030G45KT BLSN TEMPO 2302/2309 2500 -SN VV010 TEMPO 2306/2318 18020G35KT BLSN